Time;durP1;ratioP1;P1;durP2;ratioP2;P2;SDS_P1;SDS_P2;PMS_P1;PMS_P2;Temp;Humidity;BMP_temperature;BMP_pressure;BME280_temperature;BME280_humidity;BME280_pressure;Samples;Min_cycle;Max_cycle;Signal;HPM_P1;HPM_P2
2023/03/14 00:02:17;;;;;;;30.98;3.33;;;10.20;99.90;;;;;;5097272;28;20050;-81
2023/03/14 00:04:43;;;;;;;32.08;3.33;;;10.20;99.90;;;;;;5096887;28;20394;-81
2023/03/14 00:07:11;;;;;;;26.15;3.50;;;10.20;99.90;;;;;;5115339;28;20131;-81
2023/03/14 00:09:37;;;;;;;41.33;3.47;;;10.20;99.90;;;;;;5115315;28;20043;-79
2023/03/14 00:12:03;;;;;;;32.30;3.60;;;10.30;99.90;;;;;;5097032;28;20100;-80
2023/03/14 00:14:31;;;;;;;40.17;4.03;;;10.30;99.90;;;;;;5097271;28;20122;-81
2023/03/14 00:16:56;;;;;;;22.80;3.95;;;10.30;99.90;;;;;;5116155;28;20043;-81
2023/03/14 00:19:22;;;;;;;27.52;4.70;;;10.40;99.90;;;;;;5080872;28;20116;-79
2023/03/14 00:21:48;;;;;;;35.97;4.45;;;10.40;99.90;;;;;;5080136;28;20052;-82
2023/03/14 00:24:14;;;;;;;31.85;5.07;;;10.50;99.90;;;;;;5098558;28;20044;-82
2023/03/14 00:26:39;;;;;;;33.33;3.90;;;10.50;99.90;;;;;;5115110;28;20502;-81
2023/03/14 00:29:05;;;;;;;31.48;4.05;;;10.50;99.90;;;;;;5096729;28;20051;-81
2023/03/14 00:31:31;;;;;;;24.80;3.95;;;10.50;99.90;;;;;;5096756;28;20161;-80
2023/03/14 00:33:57;;;;;;;29.40;5.47;;;10.50;99.90;;;;;;5114794;28;20051;-78
2023/03/14 00:36:23;;;;;;;24.98;4.82;;;10.50;99.90;;;;;;5115148;28;20039;-82
2023/03/14 00:38:51;;;;;;;24.50;4.40;;;10.50;99.90;;;;;;5115574;28;20043;-79
2023/03/14 00:41:25;;;;;;;32.70;4.43;;;10.50;99.90;;;;;;5114737;28;20132;-80
2023/03/14 00:43:51;;;;;;;26.20;5.55;;;10.30;99.90;;;;;;5096407;28;20100;-77
2023/03/14 00:46:17;;;;;;;23.33;5.67;;;10.30;99.90;;;;;;5097473;28;20444;-77
2023/03/14 00:48:46;;;;;;;34.37;6.20;;;10.20;99.90;;;;;;5114482;28;20130;-74
2023/03/14 00:51:13;;;;;;;27.80;5.28;;;10.10;99.90;;;;;;5096488;28;20054;-74
2023/03/14 00:53:39;;;;;;;30.63;5.70;;;10.00;99.90;;;;;;5096260;28;20462;-73
2023/03/14 00:56:08;;;;;;;31.05;5.75;;;9.90;99.90;;;;;;5096276;28;20079;-74
2023/03/14 00:58:34;;;;;;;26.58;5.15;;;9.80;99.90;;;;;;5096982;28;20044;-74
2023/03/14 01:01:09;;;;;;;26.95;5.20;;;9.80;99.90;;;;;;5097046;28;20383;-73
2023/03/14 01:03:35;;;;;;;26.52;4.20;;;9.80;99.90;;;;;;5096321;28;20108;-74
2023/03/14 01:06:15;;;;;;;16.90;4.68;;;9.70;99.90;;;;;;5114096;28;20039;-74
2023/03/14 01:08:41;;;;;;;18.98;4.20;;;9.60;99.90;;;;;;5095894;28;20044;-75
2023/03/14 01:11:15;;;;;;;31.75;5.07;;;9.50;99.90;;;;;;5114062;28;20087;-75
2023/03/14 01:13:41;;;;;;;25.65;4.75;;;9.50;99.90;;;;;;5097090;28;20047;-73
2023/03/14 01:16:09;;;;;;;25.63;4.53;;;9.40;99.90;;;;;;5096604;28;20039;-75
2023/03/14 01:18:36;;;;;;;24.05;3.83;;;9.50;99.90;;;;;;5114721;28;20100;-74
2023/03/14 01:21:03;;;;;;;30.95;4.60;;;9.40;99.90;;;;;;5113918;28;20076;-75
2023/03/14 01:23:29;;;;;;;19.42;3.08;;;9.40;99.90;;;;;;5113372;28;20130;-75
2023/03/14 01:25:55;;;;;;;25.52;4.10;;;9.40;99.90;;;;;;5096084;28;20546;-75
2023/03/14 01:28:20;;;;;;;28.17;3.17;;;9.40;99.90;;;;;;5095754;28;20134;-75
2023/03/14 01:30:46;;;;;;;17.23;2.95;;;9.40;99.90;;;;;;5114003;28;20044;-75
2023/03/14 01:33:14;;;;;;;25.70;3.80;;;9.30;99.90;;;;;;5096778;28;20043;-74
2023/03/14 01:35:39;;;;;;;23.55;4.35;;;9.20;99.90;;;;;;5113762;28;20051;-75
2023/03/14 01:38:06;;;;;;;27.73;5.53;;;9.20;99.90;;;;;;5095664;28;20479;-77
2023/03/14 01:40:31;;;;;;;25.53;4.87;;;9.20;99.90;;;;;;5114429;28;20047;-76
2023/03/14 01:43:05;;;;;;;25.05;4.97;;;9.20;99.90;;;;;;5095566;28;20054;-75
2023/03/14 01:46:05;;;;;;;25.77;5.28;;;9.30;99.90;;;;;;5114409;28;20135;-76
2023/03/14 01:48:46;;;;;;;27.92;4.82;;;9.30;99.90;;;;;;5095721;28;20043;-77
2023/03/14 01:51:30;;;;;;;23.65;4.47;;;9.30;99.90;;;;;;5096627;28;20047;-77
2023/03/14 01:54:06;;;;;;;21.63;3.97;;;9.30;99.90;;;;;;5096349;28;20494;-74
2023/03/14 01:56:32;;;;;;;26.40;4.03;;;9.40;99.90;;;;;;5116307;28;20173;-76
2023/03/14 01:59:00;;;;;;;24.48;4.00;;;9.40;99.90;;;;;;5118249;28;20360;-75
2023/03/14 02:01:27;;;;;;;27.17;4.10;;;9.50;99.90;;;;;;5083186;28;20052;-76
2023/03/14 02:03:56;;;;;;;27.05;4.75;;;9.60;99.90;;;;;;5117844;28;20406;-75
2023/03/14 02:06:30;;;;;;;22.90;3.95;;;9.60;99.90;;;;;;5117675;28;20156;-75
2023/03/14 02:08:56;;;;;;;32.40;4.65;;;9.70;99.90;;;;;;5099698;28;20442;-77
2023/03/14 02:11:28;;;;;;;25.40;3.45;;;9.70;99.90;;;;;;5099599;28;20172;-75
2023/03/14 02:13:54;;;;;;;26.38;3.95;;;9.70;99.90;;;;;;5117492;28;20047;-75
2023/03/14 02:16:20;;;;;;;26.13;4.22;;;9.70;99.90;;;;;;5117479;28;20036;-75
2023/03/14 02:18:46;;;;;;;21.42;3.92;;;9.70;99.90;;;;;;5099418;28;20097;-76
2023/03/14 02:21:16;;;;;;;20.98;3.40;;;9.80;99.90;;;;;;5117415;28;20048;-74
2023/03/14 02:23:58;;;;;;;20.65;4.60;;;9.80;99.90;;;;;;5117699;28;20047;-76
2023/03/14 02:26:47;;;;;;;20.83;4.03;;;9.80;99.90;;;;;;5099684;28;20040;-75
2023/03/14 02:29:13;;;;;;;18.67;2.58;;;9.90;99.90;;;;;;5082463;28;20060;-76
2023/03/14 02:31:38;;;;;;;18.00;3.25;;;9.90;99.90;;;;;;5099262;28;20480;-77
2023/03/14 02:34:05;;;;;;;13.48;2.63;;;9.90;99.90;;;;;;5118802;28;20043;-75
2023/03/14 02:36:31;;;;;;;19.05;3.92;;;9.90;99.90;;;;;;5117283;28;20122;-77
2023/03/14 02:39:21;;;;;;;14.07;3.00;;;9.80;99.90;;;;;;5117396;28;20047;-76
2023/03/14 02:41:48;;;;;;;15.85;1.80;;;9.80;99.90;;;;;;5117448;28;20081;-77
2023/03/14 02:44:14;;;;;;;13.63;2.42;;;9.70;99.90;;;;;;5117140;28;20055;-75
2023/03/14 02:46:41;;;;;;;14.85;2.35;;;9.70;99.90;;;;;;5117074;28;20040;-75
2023/03/14 02:49:10;;;;;;;10.87;1.63;;;9.70;99.90;;;;;;5117020;28;20381;-76
2023/03/14 02:51:37;;;;;;;10.43;2.70;;;9.70;99.90;;;;;;5082148;28;20113;-76
2023/03/14 02:54:03;;;;;;;;;;;9.70;99.90;;;;;;5117296;28;20051;-75
2023/03/14 02:56:29;;;;;;;13.60;2.73;;;9.50;99.90;;;;;;5116841;28;19920;-77
2023/03/14 02:58:54;;;;;;;13.57;2.35;;;9.40;99.90;;;;;;5098908;28;20044;-75
2023/03/14 03:01:20;;;;;;;16.83;2.58;;;9.30;99.90;;;;;;5098710;28;20122;-77
2023/03/14 03:03:46;;;;;;;11.02;2.25;;;9.30;99.90;;;;;;5116431;28;20138;-76
2023/03/14 03:06:12;;;;;;;12.75;2.03;;;9.30;99.90;;;;;;5116467;28;20044;-76
2023/03/14 03:08:37;;;;;;;13.15;2.80;;;9.30;99.90;;;;;;5097204;28;20040;-75
2023/03/14 03:11:04;;;;;;;11.15;2.50;;;9.30;99.90;;;;;;5098606;28;20058;-76
2023/03/14 03:13:29;;;;;;;14.63;2.92;;;9.30;99.90;;;;;;5098817;28;20047;-76
2023/03/14 03:15:55;;;;;;;14.50;3.28;;;9.30;99.90;;;;;;5116988;28;20070;-77
2023/03/14 03:18:21;;;;;;;13.20;3.13;;;9.30;99.90;;;;;;5098491;28;20077;-75
2023/03/14 03:20:47;;;;;;;15.40;2.85;;;9.30;99.90;;;;;;5117936;28;20131;-76
2023/03/14 03:23:13;;;;;;;21.75;3.75;;;9.30;99.90;;;;;;5116835;28;20471;-77
2023/03/14 03:25:38;;;;;;;15.73;3.10;;;9.30;99.90;;;;;;5116505;28;20123;-78
2023/03/14 03:28:07;;;;;;;12.07;2.88;;;9.20;99.90;;;;;;5081291;28;20123;-77
2023/03/14 03:30:37;;;;;;;19.42;5.07;;;9.30;99.90;;;;;;5116281;28;20148;-77
2023/03/14 03:33:02;;;;;;;16.23;2.97;;;9.30;99.90;;;;;;5116137;28;20047;-76
2023/03/14 03:35:28;;;;;;;15.40;3.30;;;9.30;99.90;;;;;;5099303;28;20040;-75
2023/03/14 03:37:54;;;;;;;16.60;2.95;;;9.30;99.90;;;;;;5116227;28;20043;-78
2023/03/14 03:40:19;;;;;;;12.85;2.75;;;9.30;99.90;;;;;;5116230;28;20127;-77
2023/03/14 03:42:45;;;;;;;21.45;3.42;;;9.40;99.90;;;;;;5098982;28;20044;-79
2023/03/14 03:45:11;;;;;;;17.25;2.67;;;9.30;99.90;;;;;;5098349;28;20487;-77
2023/03/14 03:47:37;;;;;;;18.17;2.90;;;9.30;99.90;;;;;;5098164;28;20506;-77
2023/03/14 03:50:03;;;;;;;16.48;3.03;;;9.20;99.90;;;;;;5081413;28;20059;-78
2023/03/14 03:52:28;;;;;;;12.80;2.55;;;9.40;99.90;;;;;;5117117;28;20047;-79
2023/03/14 03:54:54;;;;;;;12.02;2.03;;;9.40;99.90;;;;;;5099135;28;20083;-79
2023/03/14 03:57:20;;;;;;;12.23;2.30;;;9.30;99.90;;;;;;5116110;28;20039;-78
2023/03/14 03:59:46;;;;;;;15.32;2.30;;;9.30;99.90;;;;;;5098385;28;20050;-77
2023/03/14 04:02:11;;;;;;;21.17;4.15;;;9.30;99.90;;;;;;5098250;28;20563;-78
2023/03/14 04:04:38;;;;;;;14.98;2.30;;;9.20;99.90;;;;;;5117087;28;20067;-77
2023/03/14 04:07:04;;;;;;;13.13;2.08;;;9.10;99.90;;;;;;5116478;28;20043;-79
2023/03/14 04:09:30;;;;;;;19.48;3.53;;;9.10;99.90;;;;;;5098743;28;20059;-79
2023/03/14 04:11:56;;;;;;;15.07;2.75;;;9.10;99.90;;;;;;5116062;28;20050;-77
2023/03/14 04:14:23;;;;;;;16.17;3.90;;;9.20;99.90;;;;;;5115749;28;20036;-77
2023/03/14 04:16:48;;;;;;;13.80;3.00;;;9.20;99.90;;;;;;5115599;28;20040;-75
2023/03/14 04:19:14;;;;;;;14.98;2.83;;;9.10;99.90;;;;;;5096832;28;20372;-77
2023/03/14 04:21:44;;;;;;;14.35;3.10;;;9.10;99.90;;;;;;5115995;28;20054;-75
2023/03/14 04:24:10;;;;;;;12.48;3.30;;;9.10;99.90;;;;;;5114827;28;20036;-76
2023/03/14 04:26:36;;;;;;;13.75;3.00;;;9.10;99.90;;;;;;5115388;28;20135;-75
2023/03/14 04:29:02;;;;;;;14.73;3.15;;;9.00;99.90;;;;;;5097493;28;20182;-77
2023/03/14 04:31:27;;;;;;;12.18;3.08;;;9.00;99.90;;;;;;5097682;28;20113;-75
2023/03/14 04:33:53;;;;;;;15.38;3.55;;;9.10;99.90;;;;;;5116115;28;20078;-77
2023/03/14 04:36:19;;;;;;;14.85;3.80;;;9.10;99.90;;;;;;5080039;28;20039;-75
2023/03/14 04:38:45;;;;;;;12.23;4.05;;;9.10;99.90;;;;;;5097205;28;20043;-77
2023/03/14 04:41:11;;;;;;;12.93;3.50;;;9.10;99.90;;;;;;5114821;28;20043;-76
2023/03/14 04:43:37;;;;;;;13.82;4.03;;;9.10;99.90;;;;;;5080042;28;20566;-77
2023/03/14 04:46:03;;;;;;;14.25;4.18;;;9.10;99.90;;;;;;5097049;28;20042;-76
2023/03/14 04:48:29;;;;;;;18.13;3.92;;;9.10;99.90;;;;;;5096627;28;20043;-76
2023/03/14 04:50:55;;;;;;;20.88;4.85;;;9.10;99.90;;;;;;5096450;28;20475;-79
2023/03/14 04:53:21;;;;;;;17.92;3.72;;;9.20;99.90;;;;;;5114296;28;20039;-76
2023/03/14 04:55:51;;;;;;;18.33;3.92;;;9.20;99.90;;;;;;5114732;28;20043;-75
2023/03/14 04:58:19;;;;;;;19.02;3.67;;;9.20;99.90;;;;;;5114615;28;20108;-75
2023/03/14 05:00:45;;;;;;;20.08;4.20;;;9.20;99.90;;;;;;5096364;28;20086;-76
2023/03/14 05:03:11;;;;;;;18.30;3.85;;;9.20;99.90;;;;;;5114569;28;20142;-78
2023/03/14 05:05:36;;;;;;;18.02;4.00;;;9.20;99.90;;;;;;5113302;28;20105;-75
2023/03/14 05:08:02;;;;;;;18.90;3.55;;;9.20;99.90;;;;;;5114704;28;20495;-76
2023/03/14 05:10:28;;;;;;;12.05;3.42;;;9.20;99.90;;;;;;5096237;28;20100;-78
2023/03/14 05:12:54;;;;;;;14.18;3.58;;;9.30;99.90;;;;;;5114571;28;20079;-77
2023/03/14 05:15:20;;;;;;;10.07;2.83;;;9.30;99.90;;;;;;5096522;28;20040;-79
2023/03/14 05:17:46;;;;;;;12.43;3.47;;;9.30;99.90;;;;;;5115097;28;20100;-76
2023/03/14 05:20:15;;;;;;;16.23;3.10;;;9.20;99.90;;;;;;5114408;28;20510;-77
2023/03/14 05:22:41;;;;;;;16.60;3.13;;;9.20;99.90;;;;;;5096811;28;20441;-78
2023/03/14 05:25:08;;;;;;;14.85;2.90;;;9.20;99.90;;;;;;5115695;28;20043;-78
2023/03/14 05:27:34;;;;;;;11.52;2.60;;;9.30;99.90;;;;;;5097454;28;20197;-75
2023/03/14 05:29:59;;;;;;;16.02;2.95;;;9.20;99.90;;;;;;5096119;28;20093;-77
2023/03/14 05:32:25;;;;;;;12.77;2.95;;;9.10;99.90;;;;;;5095466;28;20047;-78
2023/03/14 05:34:51;;;;;;;15.90;2.72;;;9.10;99.90;;;;;;5113918;28;20491;-77
2023/03/14 05:37:16;;;;;;;20.50;3.45;;;9.10;99.90;;;;;;5113660;28;20270;-78
2023/03/14 05:39:42;;;;;;;12.10;2.58;;;9.00;99.90;;;;;;5095847;28;20069;-79
2023/03/14 05:42:08;;;;;;;13.40;2.60;;;9.00;99.90;;;;;;5095637;28;20046;-75
2023/03/14 05:44:33;;;;;;;11.77;2.28;;;9.00;99.90;;;;;;5079524;28;20446;-76
2023/03/14 05:46:59;;;;;;;19.17;2.58;;;9.00;99.90;;;;;;5113600;28;20097;-78
2023/03/14 05:49:25;;;;;;;13.55;2.60;;;8.90;99.90;;;;;;5113666;28;20106;-78
2023/03/14 05:51:51;;;;;;;19.15;2.70;;;8.90;99.90;;;;;;5114685;28;20055;-77
2023/03/14 05:54:17;;;;;;;13.70;2.60;;;8.90;99.90;;;;;;5114525;28;20471;-78
2023/03/14 05:56:42;;;;;;;17.67;3.35;;;8.90;99.90;;;;;;5114071;28;20052;-78
2023/03/14 05:59:08;;;;;;;17.55;3.75;;;8.90;99.90;;;;;;5095478;28;20475;-77
2023/03/14 06:01:34;;;;;;;17.27;2.80;;;8.80;99.90;;;;;;5113422;28;20147;-77
2023/03/14 06:04:00;;;;;;;18.63;2.70;;;8.80;99.90;;;;;;5095232;28;20064;-78
2023/03/14 06:06:26;;;;;;;14.45;2.45;;;8.80;99.90;;;;;;5113229;28;20105;-78
2023/03/14 06:08:51;;;;;;;20.75;3.45;;;8.80;99.90;;;;;;5095763;28;20153;-79
2023/03/14 06:11:17;;;;;;;19.17;2.88;;;8.90;99.90;;;;;;5095927;28;20443;-78
2023/03/14 06:13:43;;;;;;;13.25;3.35;;;8.80;99.90;;;;;;5112585;28;20047;-78
2023/03/14 06:16:09;;;;;;;21.00;3.10;;;8.80;99.90;;;;;;5113987;28;20044;-80
2023/03/14 06:18:35;;;;;;;17.48;4.45;;;8.90;99.90;;;;;;5095894;28;20496;-78
2023/03/14 06:21:00;;;;;;;18.88;4.07;;;8.90;99.90;;;;;;5095282;28;20126;-79
2023/03/14 06:23:26;;;;;;;14.90;2.67;;;8.90;99.90;;;;;;5095154;28;20054;-77
2023/03/14 06:25:52;;;;;;;14.52;3.47;;;8.90;99.90;;;;;;5113335;28;20043;-77
2023/03/14 06:28:18;;;;;;;19.38;3.55;;;8.90;99.90;;;;;;5113406;28;20044;-79
2023/03/14 06:30:44;;;;;;;16.67;3.72;;;8.90;99.90;;;;;;5095366;28;20126;-78
2023/03/14 06:33:10;;;;;;;15.45;3.50;;;8.90;99.90;;;;;;5113877;28;20047;-79
2023/03/14 06:35:35;;;;;;;19.15;3.30;;;8.90;99.90;;;;;;5095191;28;20043;-78
2023/03/14 06:38:01;;;;;;;17.65;3.13;;;8.90;99.90;;;;;;5095366;28;20039;-79
2023/03/14 06:40:27;;;;;;;18.83;2.67;;;9.00;99.90;;;;;;5078476;28;20057;-78
2023/03/14 06:42:52;;;;;;;13.93;3.30;;;9.00;99.90;;;;;;5098583;28;20380;-77
2023/03/14 06:45:18;;;;;;;12.23;2.20;;;9.00;99.90;;;;;;5083425;28;20055;-78
2023/03/14 06:47:44;;;;;;;9.88;2.65;;;9.00;99.90;;;;;;5100607;28;20044;-78
2023/03/14 06:50:10;;;;;;;16.73;3.13;;;9.00;99.90;;;;;;5117884;28;20376;-79
2023/03/14 06:52:36;;;;;;;16.58;3.42;;;8.90;99.90;;;;;;5099044;28;20048;-78
2023/03/14 06:55:03;;;;;;;16.75;3.28;;;9.00;99.90;;;;;;5117011;28;20155;-78
2023/03/14 06:57:28;;;;;;;16.95;3.72;;;9.00;99.90;;;;;;5098145;28;20046;-78
2023/03/14 06:59:54;;;;;;;18.15;4.07;;;9.00;99.90;;;;;;5098280;28;20035;-77
2023/03/14 07:02:21;;;;;;;17.15;4.15;;;9.00;99.90;;;;;;5116653;28;20040;-77
2023/03/14 07:04:47;;;;;;;21.40;4.13;;;9.00;99.90;;;;;;5098759;28;20096;-79
2023/03/14 07:07:13;;;;;;;18.08;4.75;;;9.00;99.90;;;;;;5116267;28;20135;-81
2023/03/14 07:09:39;;;;;;;17.38;4.00;;;9.00;99.90;;;;;;5097949;28;20096;-79
2023/03/14 07:12:04;;;;;;;18.80;3.78;;;9.00;99.90;;;;;;5116149;28;20108;-80
2023/03/14 07:14:30;;;;;;;14.55;3.75;;;9.10;99.90;;;;;;5098124;28;20047;-79
2023/03/14 07:16:56;;;;;;;15.85;4.93;;;9.10;99.90;;;;;;5116097;28;20043;-78
2023/03/14 07:19:22;;;;;;;9.13;0.98;;;9.00;99.90;;;;;;5081269;28;20051;-80
2023/03/14 07:21:48;;;;;;;5.97;0.82;;;8.70;99.90;;;;;;5098225;28;20177;-79
2023/03/14 07:24:13;;;;;;;4.97;0.63;;;8.40;99.90;;;;;;5116471;28;20043;-78
2023/03/14 07:26:39;;;;;;;6.80;1.10;;;8.30;99.90;;;;;;5080905;28;20094;-80
2023/03/14 07:29:05;;;;;;;6.45;0.90;;;8.10;99.90;;;;;;5116690;28;20043;-79
2023/03/14 07:31:31;;;;;;;9.32;0.70;;;8.10;99.90;;;;;;5116047;28;20078;-76
2023/03/14 07:33:57;;;;;;;6.03;0.65;;;8.00;99.90;;;;;;5097927;28;20051;-80
2023/03/14 07:36:22;;;;;;;5.93;1.15;;;7.90;99.90;;;;;;5116002;28;20051;-80
2023/03/14 07:38:48;;;;;;;11.27;1.52;;;7.90;99.90;;;;;;5098193;28;20047;-78
2023/03/14 07:41:14;;;;;;;6.97;1.60;;;7.80;99.90;;;;;;5116091;28;20082;-79
2023/03/14 07:43:40;;;;;;;10.40;2.50;;;7.80;99.90;;;;;;5080726;28;20043;-81
2023/03/14 07:46:06;;;;;;;6.22;1.40;;;8.20;99.90;;;;;;5098199;28;20126;-79
2023/03/14 07:48:32;;;;;;;6.15;0.95;;;8.20;99.90;;;;;;5115967;28;20047;-76
2023/03/14 07:50:57;;;;;;;8.18;0.40;;;7.50;99.90;;;;;;5116179;28;20036;-79
2023/03/14 07:53:24;;;;;;;10.07;0.85;;;7.50;99.90;;;;;;5096934;28;20044;-76
2023/03/14 07:55:54;;;;;;;8.98;0.40;;;7.20;99.90;;;;;;5080858;28;20050;-77
2023/03/14 07:58:21;;;;;;;5.63;0.20;;;7.10;99.90;;;;;;5097818;28;20450;-80
2023/03/14 08:00:47;;;;;;;11.55;1.00;;;7.20;99.90;;;;;;5097753;28;20044;-79
2023/03/14 08:03:13;;;;;;;3.17;0.30;;;6.80;99.90;;;;;;5097259;28;20051;-80
2023/03/14 08:05:39;;;;;;;9.65;0.70;;;6.30;99.90;;;;;;5115862;28;20059;-80
2023/03/14 08:08:05;;;;;;;7.50;0.17;;;6.00;99.90;;;;;;5115864;28;20043;-77
2023/03/14 08:10:32;;;;;;;8.70;0.35;;;6.00;99.90;;;;;;5115802;28;20046;-79
2023/03/14 08:13:00;;;;;;;9.60;0.50;;;5.60;99.90;;;;;;5097698;28;20047;-84
2023/03/14 08:15:28;;;;;;;9.43;0.40;;;5.60;99.90;;;;;;5115209;28;20043;-84
2023/03/14 08:17:54;;;;;;;11.27;0.40;;;5.50;99.90;;;;;;5115224;28;20066;-80
2023/03/14 08:20:21;;;;;;;3.35;0.10;;;5.50;99.90;;;;;;5097299;28;20047;-81
2023/03/14 08:22:47;;;;;;;2.22;0.10;;;5.50;99.90;;;;;;5115267;28;20051;-80
2023/03/14 08:25:13;;;;;;;4.72;0.20;;;5.20;99.90;;;;;;5115232;28;20074;-80
2023/03/14 08:27:40;;;;;;;4.55;0.52;;;5.20;99.90;;;;;;5114843;28;20051;-78
2023/03/14 08:30:08;;;;;;;2.05;0.00;;;5.10;99.90;;;;;;5081072;28;20047;-83
2023/03/14 08:32:34;;;;;;;0.77;0.08;;;5.30;99.90;;;;;;5097239;28;20055;-82
2023/03/14 08:35:00;;;;;;;5.07;0.17;;;5.20;99.90;;;;;;5096583;28;20083;-81
2023/03/14 08:37:26;;;;;;;1.35;0.10;;;5.00;99.90;;;;;;5079660;28;20066;-79
2023/03/14 08:39:53;;;;;;;5.07;0.20;;;5.10;99.90;;;;;;5096365;28;20104;-80
2023/03/14 08:42:18;;;;;;;5.00;0.50;;;5.10;99.90;;;;;;5097470;28;20101;-76
2023/03/14 08:44:44;;;;;;;5.25;0.47;;;5.10;99.90;;;;;;5115593;28;20434;-78
2023/03/14 08:47:10;;;;;;;6.32;0.40;;;5.00;99.90;;;;;;5114537;28;20044;-79
2023/03/14 08:49:36;;;;;;;6.03;0.60;;;5.10;99.90;;;;;;5096544;28;20467;-80
2023/03/14 08:52:04;;;;;;;5.28;0.57;;;5.20;99.90;;;;;;5097180;28;20055;-80
2023/03/14 08:54:30;;;;;;;5.53;0.47;;;5.20;99.90;;;;;;5100678;28;20394;-78
2023/03/14 08:56:56;;;;;;;7.63;0.60;;;5.20;99.90;;;;;;5119805;28;20040;-76
2023/03/14 08:59:22;;;;;;;5.80;0.50;;;5.20;99.90;;;;;;5122066;28;20087;-80
2023/03/14 09:01:48;;;;;;;13.57;0.90;;;5.20;99.90;;;;;;5116178;28;20058;-81
2023/03/14 09:04:13;;;;;;;6.22;0.50;;;5.10;99.90;;;;;;5114836;28;20094;-78
2023/03/14 09:06:39;;;;;;;2.28;0.30;;;5.10;99.90;;;;;;5097050;28;20063;-79
2023/03/14 09:09:05;;;;;;;4.20;0.30;;;5.30;99.90;;;;;;5098852;28;20080;-78
2023/03/14 09:11:31;;;;;;;2.95;0.38;;;5.20;99.90;;;;;;5116874;28;20167;-79
2023/03/14 09:13:57;;;;;;;11.68;1.00;;;5.30;99.90;;;;;;5117726;28;20054;-80
2023/03/14 09:16:23;;;;;;;4.15;0.30;;;5.20;99.90;;;;;;5116557;28;20043;-80
2023/03/14 09:18:48;;;;;;;9.68;1.23;;;5.40;99.90;;;;;;5096815;28;20047;-79
2023/03/14 09:21:15;;;;;;;12.23;0.47;;;5.30;99.90;;;;;;5096629;28;20054;-79
2023/03/14 09:23:41;;;;;;;5.50;0.50;;;5.40;99.90;;;;;;5113940;28;20047;-78
2023/03/14 09:26:07;;;;;;;6.85;0.63;;;5.50;99.90;;;;;;5113973;28;20039;-79
2023/03/14 09:28:33;;;;;;;11.82;0.88;;;5.60;99.90;;;;;;5095673;28;20070;-79
2023/03/14 09:31:09;;;;;;;10.77;0.95;;;5.60;99.90;;;;;;5114136;28;20043;-78
2023/03/14 09:33:35;;;;;;;13.93;0.65;;;5.50;99.90;;;;;;5079588;28;20051;-79
2023/03/14 09:36:01;;;;;;;10.17;1.17;;;5.80;99.90;;;;;;5113647;28;20035;-77
2023/03/14 09:38:28;;;;;;;7.65;0.55;;;5.70;99.90;;;;;;5113703;28;20044;-78
2023/03/14 09:40:54;;;;;;;14.73;0.75;;;5.80;99.90;;;;;;5114208;28;20472;-81
2023/03/14 09:43:22;;;;;;;7.38;0.40;;;5.70;99.90;;;;;;5079420;28;20443;-78
2023/03/14 09:45:50;;;;;;;17.90;1.05;;;5.70;99.90;;;;;;5114060;28;20043;-80
2023/03/14 09:48:20;;;;;;;12.68;0.93;;;5.80;99.90;;;;;;5114001;28;20126;-80
2023/03/14 09:50:52;;;;;;;11.25;0.88;;;5.80;99.90;;;;;;5079029;28;20075;-81
2023/03/14 09:53:24;;;;;;;19.40;1.38;;;6.10;99.90;;;;;;5113692;28;20086;-80
2023/03/14 09:55:52;;;;;;;7.75;0.50;;;6.00;99.90;;;;;;5113761;28;20040;-75
2023/03/14 09:58:21;;;;;;;17.48;2.17;;;6.10;99.90;;;;;;5113657;28;20055;-79
2023/03/14 10:00:50;;;;;;;12.15;0.60;;;6.00;99.90;;;;;;5095734;28;20052;-81
2023/03/14 10:03:31;;;;;;;15.77;1.10;;;6.00;99.90;;;;;;5113757;28;20055;-77
2023/03/14 10:05:57;;;;;;;27.13;1.88;;;6.10;99.90;;;;;;5095607;28;20119;-76
2023/03/14 10:08:23;;;;;;;20.48;1.88;;;6.20;99.90;;;;;;5078994;28;20048;-79
2023/03/14 10:10:49;;;;;;;13.00;0.90;;;6.10;99.90;;;;;;5095409;28;20100;-78
2023/03/14 10:13:25;;;;;;;26.70;1.80;;;6.20;99.90;;;;;;5078433;28;20130;-76
2023/03/14 10:15:52;;;;;;;21.67;1.77;;;6.40;99.90;;;;;;5113314;28;20096;-80
2023/03/14 10:18:18;;;;;;;25.70;1.75;;;6.50;99.90;;;;;;5099270;28;20039;-80
2023/03/14 10:20:47;;;;;;;12.85;1.02;;;6.50;99.90;;;;;;5118103;28;20451;-80
2023/03/14 10:23:13;;;;;;;19.15;1.70;;;6.30;99.90;;;;;;5099760;28;20134;-78
2023/03/14 10:25:44;;;;;;;18.75;1.00;;;5.90;99.90;;;;;;5099130;28;20131;-76
2023/03/14 10:28:31;;;;;;;19.90;1.63;;;5.80;99.90;;;;;;5117123;28;20054;-76
2023/03/14 10:30:58;;;;;;;;;;;5.90;99.90;;;;;;5099299;28;20058;-77
2023/03/14 10:33:29;;;;;;;23.77;2.03;;;6.00;99.90;;;;;;5099741;28;19920;-78
2023/03/14 10:36:06;;;;;;;12.20;1.15;;;6.20;99.90;;;;;;5116925;28;20090;-79
2023/03/14 10:38:36;;;;;;;14.63;1.48;;;6.30;99.90;;;;;;5116999;28;20048;-79
2023/03/14 10:41:14;;;;;;;20.27;1.63;;;6.40;99.90;;;;;;5116795;28;20058;-76
2023/03/14 10:43:41;;;;;;;32.70;3.10;;;6.50;99.90;;;;;;5116770;28;20048;-80
2023/03/14 10:46:15;;;;;;;23.15;1.85;;;6.10;99.90;;;;;;5082542;28;20097;-77
2023/03/14 10:48:41;;;;;;;25.83;2.28;;;5.90;99.90;;;;;;5116726;28;20127;-76
2023/03/14 10:51:16;;;;;;;24.48;1.48;;;5.90;99.90;;;;;;5098304;28;20054;-80
2023/03/14 10:53:49;;;;;;;29.35;2.78;;;6.00;99.90;;;;;;5116734;28;20096;-79
2023/03/14 10:56:20;;;;;;;24.63;2.28;;;6.20;99.90;;;;;;5082300;28;20048;-79
2023/03/14 10:58:48;;;;;;;19.20;1.88;;;6.40;99.90;;;;;;5099414;28;20055;-79
2023/03/14 11:01:17;;;;;;;25.50;3.08;;;6.50;99.90;;;;;;5117383;28;20479;-78
2023/03/14 11:03:52;;;;;;;26.00;2.47;;;6.70;99.90;;;;;;5116911;28;20090;-78
2023/03/14 11:06:24;;;;;;;21.17;1.55;;;6.60;99.90;;;;;;5116784;28;20070;-78
2023/03/14 11:09:05;;;;;;;27.10;1.80;;;6.80;99.90;;;;;;5098142;28;20044;-77
2023/03/14 11:11:31;;;;;;;35.47;3.10;;;6.80;99.90;;;;;;5116353;28;20051;-78
2023/03/14 11:14:25;;;;;;;25.75;3.80;;;6.80;99.90;;;;;;5098474;28;20406;-77
2023/03/14 11:17:05;;;;;;;16.75;1.20;;;6.90;99.90;;;;;;5081761;28;20118;-73
2023/03/14 11:19:45;;;;;;;18.33;1.23;;;7.20;99.90;;;;;;5120006;28;20047;-74
2023/03/14 11:22:14;;;;;;;22.17;1.90;;;7.30;99.90;;;;;;5119680;28;20122;-78
2023/03/14 11:24:48;;;;;;;22.10;1.90;;;7.10;99.90;;;;;;5115759;28;20062;-79
2023/03/14 11:27:29;;;;;;;15.60;1.10;;;7.00;99.90;;;;;;5116333;28;20040;-78
2023/03/14 11:30:04;;;;;;;14.57;1.48;;;6.90;99.90;;;;;;5115492;28;20496;-74
2023/03/14 11:32:52;;;;;;;14.93;0.90;;;6.90;99.90;;;;;;5116906;28;20333;-78
2023/03/14 11:35:26;;;;;;;14.52;2.25;;;6.90;99.90;;;;;;5115739;28;20047;-77
2023/03/14 11:38:18;;;;;;;28.05;1.67;;;7.00;99.90;;;;;;5115939;28;20126;-79
2023/03/14 11:40:48;;;;;;;23.27;2.03;;;7.20;99.90;;;;;;5115736;28;20051;-78
2023/03/14 11:43:40;;;;;;;20.80;1.83;;;7.00;99.90;;;;;;5115568;28;20054;-79
2023/03/14 11:46:21;;;;;;;21.55;1.50;;;6.90;99.00;;;;;;5097872;28;20043;-78
2023/03/14 11:49:03;;;;;;;27.85;2.13;;;6.90;99.90;;;;;;5115543;28;20058;-76
2023/03/14 11:51:51;;;;;;;27.80;2.28;;;6.70;97.60;;;;;;5114405;28;20047;-76
2023/03/14 11:54:39;;;;;;;18.30;2.03;;;6.80;98.50;;;;;;5115406;28;20062;-77
2023/03/14 11:57:12;;;;;;;15.75;1.35;;;7.10;96.60;;;;;;5097175;28;20047;-77
2023/03/14 11:59:42;;;;;;;13.20;0.70;;;7.20;94.50;;;;;;5115418;28;20051;-78
2023/03/14 12:02:28;;;;;;;11.68;1.00;;;7.00;92.00;;;;;;5114956;28;20055;-78
2023/03/14 12:05:09;;;;;;;15.90;0.90;;;7.10;93.80;;;;;;5116459;28;20357;-76
2023/03/14 12:07:52;;;;;;;13.68;1.25;;;7.30;94.30;;;;;;5097262;28;20546;-75
2023/03/14 12:10:18;;;;;;;13.77;1.13;;;7.40;95.30;;;;;;5097185;28;20152;-76
2023/03/14 12:12:44;;;;;;;9.13;1.15;;;7.30;94.50;;;;;;5115922;28;20149;-78
2023/03/14 12:15:19;;;;;;;13.25;1.27;;;6.90;93.10;;;;;;5063841;28;20100;-79
2023/03/14 12:17:46;;;;;;;12.55;1.13;;;6.60;92.50;;;;;;5097649;28;20075;-78
2023/03/14 12:20:17;;;;;;;14.48;0.90;;;6.60;92.90;;;;;;5097604;28;20039;-79
2023/03/14 12:22:56;;;;;;;6.85;0.90;;;6.90;93.70;;;;;;5114387;28;20051;-75
2023/03/14 12:25:32;;;;;;;15.68;0.80;;;6.90;92.90;;;;;;5114863;28;20055;-77
2023/03/14 12:27:57;;;;;;;11.05;1.10;;;6.90;92.60;;;;;;5096735;28;20051;-76
2023/03/14 12:30:27;;;;;;;10.45;0.40;;;6.90;92.90;;;;;;5115015;28;20387;-78
2023/03/14 12:33:11;;;;;;;10.90;1.15;;;7.10;91.90;;;;;;5114606;28;20054;-76
2023/03/14 12:35:38;;;;;;;10.02;0.93;;;7.20;93.30;;;;;;5096575;28;20099;-77
2023/03/14 12:38:13;;;;;;;17.52;1.15;;;7.10;91.70;;;;;;5114874;28;20043;-76
2023/03/14 12:40:56;;;;;;;7.80;0.30;;;7.00;91.10;;;;;;5097488;28;20051;-77
2023/03/14 12:43:33;;;;;;;18.85;1.00;;;6.90;90.20;;;;;;5097277;28;20043;-76
2023/03/14 12:46:17;;;;;;;13.63;0.70;;;7.20;91.00;;;;;;5096285;28;20100;-78
2023/03/14 12:49:00;;;;;;;6.20;0.70;;;7.20;90.40;;;;;;5096642;28;20137;-79
2023/03/14 12:51:39;;;;;;;8.52;0.90;;;7.20;89.00;;;;;;5115611;28;20086;-80
2023/03/14 12:54:31;;;;;;;12.57;1.88;;;7.10;88.00;;;;;;5114549;28;20044;-77
2023/03/14 12:57:25;;;;;;;13.05;1.35;;;7.50;90.60;;;;;;5114644;28;20048;-78